createdAt,value
2022-11-28T00:05:55.355Z,4.18
2022-11-28T00:20:58.006Z,3.68
2022-11-28T00:36:00.463Z,3.84
2022-11-28T00:51:03.181Z,4.21
2022-11-28T01:06:05.808Z,4.28
2022-11-28T01:21:08.330Z,4.12
2022-11-28T01:36:11.092Z,4.42
2022-11-28T01:51:13.501Z,4.2
2022-11-28T02:06:15.942Z,3.36
2022-11-28T02:21:18.325Z,3.03
2022-11-28T02:36:20.955Z,2.76
2022-11-28T02:51:23.274Z,2.65
2022-11-28T03:06:25.512Z,2.42
2022-11-28T03:21:27.947Z,2.33
2022-11-28T03:36:30.254Z,1.77
2022-11-28T03:51:32.531Z,2.46
2022-11-28T04:06:34.772Z,1.35
2022-11-28T04:21:37.139Z,1.58
2022-11-28T04:36:39.328Z,1.5
2022-11-28T04:51:41.548Z,0.98
2022-11-28T05:06:44.053Z,0.86
2022-11-28T05:21:46.396Z,0.69
2022-11-28T05:36:48.752Z,0.88
2022-11-28T05:51:51.202Z,0.49
2022-11-28T06:06:53.645Z,0.54
2022-11-28T06:21:56.799Z,0.96
2022-11-28T06:36:59.201Z,1.05
2022-11-28T06:52:02.034Z,0.72
2022-11-28T07:07:04.718Z,0.02
2022-11-28T07:22:07.219Z,0.32
2022-11-28T07:37:09.740Z,0.22
2022-11-28T07:52:12.006Z,0.25
2022-11-28T08:07:14.688Z,0.46
2022-11-28T08:22:16.979Z,-0.45
2022-11-28T08:37:19.229Z,0.06
2022-11-28T08:52:21.429Z,-0.87
2022-11-28T09:07:23.762Z,-0.36
2022-11-28T09:22:26.048Z,-0.21
2022-11-28T09:37:28.289Z,-0.6
2022-11-28T09:52:30.665Z,-0.27
2022-11-28T10:07:33.128Z,-0.69
2022-11-28T10:22:35.351Z,0.07
2022-11-28T10:37:37.622Z,-0.51
2022-11-28T10:52:40.021Z,-0.28
2022-11-28T11:07:42.271Z,0.07
2022-11-28T11:22:46.157Z,-0.06
2022-11-28T11:37:48.478Z,0.3
2022-11-28T11:52:50.729Z,0.32
2022-11-28T12:07:53.293Z,0.58
2022-11-28T12:22:55.662Z,-0.09
2022-11-28T12:38:10.236Z,-0.87
2022-11-28T12:53:13.784Z,-0.77
2022-11-28T13:08:16.270Z,0.08
2022-11-28T13:23:18.668Z,0.29
2022-11-28T13:38:38.956Z,0.01
2022-11-28T13:53:46.674Z,-0.39
2022-11-28T14:08:50.056Z,-0.08
2022-11-28T14:23:52.482Z,-0.41
2022-11-28T14:38:54.930Z,-0.31
2022-11-28T14:53:57.149Z,-0.3
2022-11-28T15:08:59.396Z,0.31
2022-11-28T15:24:01.638Z,0.02
2022-11-28T15:39:03.847Z,0.27
2022-11-28T15:54:09.474Z,0.43
2022-11-28T16:09:14.384Z,0.53
2022-11-28T16:24:16.658Z,0.67
2022-11-28T16:39:18.919Z,0.36
2022-11-28T16:54:21.157Z,0.67
2022-11-28T17:09:23.377Z,1
2022-11-28T17:24:25.623Z,0.91
2022-11-28T17:39:27.811Z,0.97
2022-11-28T17:54:29.992Z,-0.16
2022-11-28T18:09:32.218Z,-0.78
2022-11-28T18:24:34.691Z,-1
2022-11-28T18:39:37.039Z,-1.36
2022-11-28T18:54:39.398Z,-1.51
2022-11-28T19:09:41.969Z,-1.18
2022-11-28T19:24:44.400Z,-1.11
2022-11-28T19:39:46.761Z,-0.41
2022-11-28T19:54:49.142Z,0.64
2022-11-28T20:09:51.456Z,0.8
2022-11-28T20:24:53.659Z,1.02
2022-11-28T20:39:55.963Z,0.72
2022-11-28T20:54:58.267Z,1.03
2022-11-28T21:10:00.503Z,1.1
2022-11-28T21:25:02.892Z,1.19
2022-11-28T21:40:05.102Z,0.58
2022-11-28T21:55:07.482Z,0.88
2022-11-28T22:10:09.706Z,1.08
2022-11-28T22:25:11.970Z,0.76
2022-11-28T22:40:14.375Z,0.83
2022-11-28T22:55:16.602Z,1.05
2022-11-28T23:10:19.141Z,0.51
2022-11-28T23:25:21.352Z,0.63
2022-11-28T23:40:23.696Z,-0.2
2022-11-28T23:55:25.904Z,0.25
